Rena Louise — WDH6329 — position and weather

sailwx.info

Track history (hours):
 
Tides and Currents Weather Stations Pressure Air Temp Water Temp Dewpoint Dewpoint Depression Visibility Wind Speed Wind Dir Waves Ship Positions

Rena Louise

Owner: Bixler, Gary W, Wharton, NJ. More information available from US FCC via Universal Licensing System and Coast Guard Vessel Documentation Center.

Last reported at 2018-May-22 12:41 UTC. Time now 2018-Jun-20 05:26 UTC.
Position N 40°27' W 074°16'.
Warning: this ship's position is 28 days out of date.

Length 13 m.

Type: Sailing vessel. MMSI: 367636830.

Date/timePositionNaut miles runAvg speedWind from/ knotsBaromVisibWave heightAir tempDewpointWater temp
2018-May-22 12:41N 40°27' W 074°16'0 0.0
2018-May-22 12:29N 40°27' W 074°16'0 0.0
2018-May-22 11:50N 40°27' W 074°16'0 0.0
2018-May-22 11:29N 40°27' W 074°16'0 0.0
2018-May-22 04:44N 40°27' W 074°16'  
2018-May-18 14:21N 40°38' W 074°03'2 4.4
2018-May-18 13:59N 40°40' W 074°03'2 4.4
2018-May-18 13:30N 40°42' W 074°02'3 0.2
2018-May-17 19:20N 40°45' W 074°01'1 3.3
2018-May-17 18:57N 40°44' W 074°02'2 3.6
2018-May-17 18:30N 40°42' W 074°02'2 3.9
2018-May-17 18:00N 40°40' W 074°03'2 3.8
2018-May-17 17:29N 40°38' W 074°03'  
Track history (hours):
 
Tides and Currents Weather Stations Pressure Air Temp Water Temp Dewpoint Dewpoint Depression Visibility Wind Speed Wind Dir Waves Ship Positions

Rena Louise

Owner: Bixler, Gary W, Wharton, NJ. More information available from US FCC via Universal Licensing System and Coast Guard Vessel Documentation Center.

Last reported at 2018-May-22 12:41 UTC. Time now 2018-Jun-20 05:26 UTC.
Position N 40°27' W 074°16'.
Warning: this ship's position is 28 days out of date.

Length 13 m.

Type: Sailing vessel. MMSI: 367636830.

Date/timePositionNaut miles runAvg speedWind from/ knotsBaromVisibWave heightAir tempDewpointWater temp
2018-May-22 12:41N 40°27' W 074°16'0 0.0
2018-May-22 12:29N 40°27' W 074°16'0 0.0
2018-May-22 11:50N 40°27' W 074°16'0 0.0
2018-May-22 11:29N 40°27' W 074°16'0 0.0
2018-May-22 04:44N 40°27' W 074°16'  
2018-May-18 14:21N 40°38' W 074°03'2 4.4
2018-May-18 13:59N 40°40' W 074°03'2 4.4
2018-May-18 13:30N 40°42' W 074°02'3 0.2
2018-May-17 19:20N 40°45' W 074°01'1 3.3
2018-May-17 18:57N 40°44' W 074°02'2 3.6
2018-May-17 18:30N 40°42' W 074°02'2 3.9
2018-May-17 18:00N 40°40' W 074°03'2 3.8
2018-May-17 17:29N 40°38' W 074°03'  

Dump ship's entire track history